Time;durP1;ratioP1;P1;durP2;ratioP2;P2;SDS_P1;SDS_P2;PMS_P1;PMS_P2;Temp;Humidity;BMP_temperature;BMP_pressure;BME280_temperature;BME280_humidity;BME280_pressure;Samples;Min_cycle;Max_cycle;Signal;HPM_P1;HPM_P2
2021/08/02 00:01:09;;;;;;;31.07;19.15;;;;;;;21.58;85.78;99318.02;1725659;82;21034;-85
2021/08/02 00:03:45;;;;;;;25.27;16.80;;;;;;;21.54;87.47;99319.30;1726541;83;21140;-84
2021/08/02 00:06:20;;;;;;;22.48;17.32;;;;;;;21.48;84.96;99316.69;1727067;80;21407;-91
2021/08/02 00:08:51;;;;;;;25.60;18.27;;;;;;;21.45;87.69;99315.66;1727740;83;21013;-88
2021/08/02 00:11:19;;;;;;;20.10;15.63;;;;;;;21.42;89.20;99321.31;1726105;82;21499;-81
2021/08/02 00:13:47;;;;;;;28.62;19.05;;;;;;;21.36;85.12;99323.19;1726664;82;21088;-78
2021/08/02 00:16:16;;;;;;;25.52;17.50;;;;;;;21.36;89.57;99324.53;1684649;83;21530;-78
2021/08/02 00:18:45;;;;;;;23.87;15.65;;;;;;;21.30;87.64;99330.45;1726436;82;21766;-77
2021/08/02 00:21:14;;;;;;;23.87;18.62;;;;;;;21.25;87.14;99336.25;1726096;82;21607;-78
2021/08/02 00:23:41;;;;;;;26.07;17.57;;;;;;;21.24;88.75;99349.80;1725958;83;21175;-77
2021/08/02 00:26:08;;;;;;;23.90;17.32;;;;;;;21.19;86.29;99353.37;1746307;81;22134;-77
2021/08/02 00:28:35;;;;;;;27.87;18.15;;;;;;;21.19;89.12;99358.73;1756258;81;21088;-78
2021/08/02 00:31:03;;;;;;;22.22;17.27;;;;;;;21.15;89.21;99360.37;1754075;81;21005;-77
2021/08/02 00:33:30;;;;;;;32.65;21.12;;;;;;;21.15;90.17;99344.30;1752701;81;21123;-77
2021/08/02 00:36:08;;;;;;;29.98;22.05;;;;;;;21.15;91.96;99336.77;1752590;81;21918;-78
2021/08/02 00:38:54;;;;;;;25.43;17.75;;;;;;;21.14;92.55;99331.92;1752437;81;21049;-77
2021/08/02 00:41:59;;;;;;;34.30;21.25;;;;;;;21.14;92.73;99330.58;1752359;81;21042;-74
2021/08/02 00:44:51;;;;;;;26.93;21.77;;;;;;;21.16;93.38;99331.75;1752454;81;21099;-77
2021/08/02 00:47:22;;;;;;;20.15;13.03;;;;;;;21.18;92.45;99324.93;1714326;83;21115;-77
2021/08/02 00:50:02;;;;;;;;;;;;;;;21.19;90.57;99321.25;1725301;83;21163;-75
2021/08/02 00:52:27;;;;;;;25.82;20.17;;;;;;;21.20;93.39;99316.27;1717312;83;20147;-75
2021/08/02 00:54:57;;;;;;;21.52;15.93;;;;;;;21.18;93.27;99312.88;1714774;83;21021;-75
2021/08/02 00:57:30;;;;;;;23.12;18.07;;;;;;;21.18;91.87;99302.17;1714742;83;21052;-74
2021/08/02 01:00:06;;;;;;;24.80;18.23;;;;;;;21.22;95.12;99300.91;1714870;83;21081;-75
2021/08/02 01:02:40;;;;;;;26.77;19.02;;;;;;;21.23;95.28;99315.96;1714747;83;21739;-75
2021/08/02 01:05:10;;;;;;;28.62;20.50;;;;;;;21.23;94.20;99317.30;1714076;83;21056;-74
2021/08/02 01:07:48;;;;;;;27.07;19.27;;;;;;;21.21;95.50;99305.89;1714491;83;21037;-75
2021/08/02 01:10:17;;;;;;;21.77;16.70;;;;;;;21.14;92.09;99297.12;1714330;83;21083;-77
2021/08/02 01:12:48;;;;;;;27.10;20.13;;;;;;;21.18;93.26;99292.80;1686970;83;21128;-77
2021/08/02 01:15:18;;;;;;;13.88;11.85;;;;;;;21.14;96.44;99289.09;1714528;83;21136;-81
2021/08/02 01:17:47;;;;;;;23.30;17.15;;;;;;;21.15;92.99;99289.42;1714842;83;21671;-81
2021/08/02 01:20:14;;;;;;;27.98;20.02;;;;;;;21.18;96.53;99283.43;1714737;83;21037;-81
2021/08/02 01:22:43;;;;;;;27.80;19.52;;;;;;;21.16;94.99;99276.41;1715115;83;21033;-76
2021/08/02 01:25:36;;;;;;;31.68;20.12;;;;;;;21.20;96.38;99274.27;1714404;83;21137;-76
2021/08/02 01:28:27;;;;;;;30.92;19.30;;;;;;;21.23;97.49;99273.12;1658709;85;21365;-76
2021/08/02 01:31:00;;;;;;;23.62;16.48;;;;;;;21.21;94.85;99261.71;1680281;85;21089;-75
2021/08/02 01:33:31;;;;;;;25.60;18.73;;;;;;;21.28;96.33;99258.80;1655063;86;21038;-76
2021/08/02 01:36:05;;;;;;;23.67;18.82;;;;;;;21.31;96.06;99259.86;1653899;86;21023;-76
2021/08/02 01:38:34;;;;;;;19.42;13.85;;;;;;;21.29;94.28;99258.66;1655991;85;21707;-76
2021/08/02 01:41:05;;;;;;;33.02;20.37;;;;;;;21.32;94.92;99256.17;1670863;85;21355;-80
2021/08/02 01:43:33;;;;;;;27.22;21.37;;;;;;;21.32;97.61;99244.13;1720537;82;21073;-82
2021/08/02 01:46:21;;;;;;;23.35;18.32;;;;;;;21.32;96.67;99246.80;1720777;83;21508;-81
2021/08/02 01:49:15;;;;;;;33.02;23.07;;;;;;;21.35;98.17;99255.91;1720031;83;21057;-81
2021/08/02 01:51:47;;;;;;;34.50;24.43;;;;;;;21.36;100.00;99257.08;1719273;83;21053;-78
2021/08/02 01:54:29;;;;;;;25.68;19.12;;;;;;;21.35;97.26;99265.28;1712842;83;21116;-83
2021/08/02 01:57:05;;;;;;;35.17;24.95;;;;;;;21.35;97.90;99269.30;1710805;82;21089;-76
2021/08/02 01:59:39;;;;;;;36.05;25.08;;;;;;;21.33;99.83;99263.23;1706410;82;21072;-79
2021/08/02 02:02:11;;;;;;;34.20;25.08;;;;;;;21.29;99.41;99256.48;1703284;83;22372;-76
2021/08/02 02:04:53;;;;;;;31.73;23.92;;;;;;;21.29;100.00;99257.82;1712705;83;21073;-77
2021/08/02 02:07:22;;;;;;;26.93;21.20;;;;;;;21.28;100.00;99240.05;1712504;83;21947;-76
2021/08/02 02:09:53;;;;;;;35.17;23.18;;;;;;;21.27;99.00;99235.70;1712308;82;21325;-76
2021/08/02 02:12:21;;;;;;;31.42;23.18;;;;;;;21.27;100.00;99249.92;1712419;83;21038;-77
2021/08/02 02:14:52;;;;;;;31.95;21.00;;;;;;;21.27;100.00;99253.10;1678207;83;21083;-77
2021/08/02 02:17:22;;;;;;;29.57;22.05;;;;;;;21.27;100.00;99239.21;1712877;83;21034;-77
2021/08/02 02:19:52;;;;;;;25.43;19.92;;;;;;;21.29;100.00;99237.73;1712400;82;21610;-77
2021/08/02 02:22:23;;;;;;;27.22;20.62;;;;;;;21.28;100.00;99240.05;1712727;83;21023;-76
2021/08/02 02:24:51;;;;;;;30.20;21.15;;;;;;;21.27;98.18;99230.34;1713000;82;21215;-75
2021/08/02 02:27:19;;;;;;;22.65;17.42;;;;;;;21.29;99.74;99227.03;1712793;83;21445;-77
2021/08/02 02:29:47;;;;;;;32.35;23.22;;;;;;;21.29;98.65;99218.99;1712867;82;21066;-77
2021/08/02 02:32:15;;;;;;;32.95;22.27;;;;;;;21.32;99.39;99216.01;1712743;83;21118;-77
2021/08/02 02:34:42;;;;;;;28.62;21.62;;;;;;;21.31;98.54;99221.03;1713058;82;21066;-75
2021/08/02 02:37:09;;;;;;;29.75;22.60;;;;;;;21.32;97.38;99213.33;1712962;82;21010;-75
2021/08/02 02:39:37;;;;;;;34.08;24.07;;;;;;;21.33;99.06;99208.34;1712673;83;21089;-76
2021/08/02 02:42:05;;;;;;;22.65;18.15;;;;;;;21.31;95.41;99203.63;1712707;82;21089;-75
2021/08/02 02:44:32;;;;;;;35.28;23.85;;;;;;;21.34;96.15;99204.66;1712773;83;21723;-75
2021/08/02 02:47:00;;;;;;;25.88;18.80;;;;;;;21.35;96.88;99214.39;1712836;83;21049;-75
2021/08/02 02:49:27;;;;;;;34.38;22.52;;;;;;;21.38;95.14;99220.78;1713034;83;21061;-76
2021/08/02 02:51:55;;;;;;;26.30;20.48;;;;;;;21.36;100.00;99233.47;1712930;82;21587;-79
2021/08/02 02:54:22;;;;;;;29.12;20.10;;;;;;;21.33;99.96;99241.81;1696674;84;21101;-78
2021/08/02 02:56:53;;;;;;;33.23;22.27;;;;;;;21.28;98.83;99248.08;1706989;84;21947;-78
2021/08/02 02:59:20;;;;;;;25.75;19.70;;;;;;;21.25;100.00;99263.11;1706701;84;21156;-78
2021/08/02 03:01:48;;;;;;;28.85;21.42;;;;;;;21.19;96.42;99266.36;1711126;83;21011;-78
2021/08/02 03:04:19;;;;;;;33.47;22.77;;;;;;;21.21;100.00;99277.77;1712972;82;21077;-78
2021/08/02 03:06:46;;;;;;;25.10;19.42;;;;;;;21.17;100.00;99275.91;1712759;82;21065;-78
2021/08/02 03:09:15;;;;;;;29.75;21.85;;;;;;;21.13;99.14;99275.83;1712864;82;21698;-80
2021/08/02 03:11:45;;;;;;;31.07;22.37;;;;;;;21.08;100.00;99270.91;1680130;83;21050;-78
2021/08/02 03:14:14;;;;;;;31.65;21.20;;;;;;;21.04;100.00;99277.54;1713139;83;21136;-80
2021/08/02 03:16:41;;;;;;;36.00;22.22;;;;;;;21.07;100.00;99274.59;1712976;83;21029;-81
2021/08/02 03:19:08;;;;;;;32.55;22.45;;;;;;;21.08;99.81;99262.88;1713106;83;21567;-79
2021/08/02 03:21:35;;;;;;;31.87;22.65;;;;;;;21.11;98.54;99267.94;1712994;82;21125;-80
2021/08/02 03:24:33;;;;;;;31.93;21.95;;;;;;;21.18;100.00;99266.03;1713125;83;21043;-80
2021/08/02 03:27:07;;;;;;;28.92;21.55;;;;;;;21.22;100.00;99264.25;1713130;83;21544;-80
2021/08/02 03:29:40;;;;;;;31.17;21.40;;;;;;;21.25;100.00;99265.79;1713068;83;22337;-80
2021/08/02 03:32:11;;;;;;;29.63;19.82;;;;;;;21.33;100.00;99271.27;1712801;83;21124;-77
2021/08/02 03:34:38;;;;;;;30.80;19.40;;;;;;;21.42;99.71;99270.89;1712837;82;21097;-78
2021/08/02 03:37:08;;;;;;;26.30;20.43;;;;;;;21.52;98.02;99279.25;1712573;83;21132;-78
2021/08/02 03:39:35;;;;;;;25.37;19.00;;;;;;;21.57;99.93;99270.27;1713031;83;21129;-78
2021/08/02 03:42:02;;;;;;;29.72;21.05;;;;;;;21.61;98.62;99276.69;1702635;83;21089;-79
2021/08/02 03:44:30;;;;;;;30.88;20.60;;;;;;;21.60;99.04;99269.13;1712826;83;21106;-79
2021/08/02 03:46:57;;;;;;;29.80;20.60;;;;;;;21.58;99.65;99275.98;1713032;83;21799;-79
2021/08/02 03:49:26;;;;;;;34.65;24.15;;;;;;;21.57;96.72;99279.64;1713519;83;21025;-80
2021/08/02 03:51:59;;;;;;;36.23;24.43;;;;;;;21.64;99.72;99288.44;1713396;82;21585;-79
2021/08/02 03:54:28;;;;;;;28.95;22.48;;;;;;;21.69;98.21;99291.00;1693623;83;21089;-74
2021/08/02 03:56:57;;;;;;;37.10;24.97;;;;;;;21.95;95.47;99291.17;1713243;82;21505;-74
2021/08/02 03:59:26;;;;;;;44.93;25.37;;;;;;;22.23;96.49;99286.30;1712840;83;21135;-74
2021/08/02 04:01:53;;;;;;;31.10;23.27;;;;;;;22.31;94.02;99291.23;1712963;83;22191;-76
2021/08/02 04:04:20;;;;;;;35.88;22.32;;;;;;;22.51;93.76;99287.07;1711721;83;21053;-73
2021/08/02 04:06:48;;;;;;;27.75;19.77;;;;;;;22.74;93.13;99282.91;1701615;83;21011;-77
2021/08/02 04:09:16;;;;;;;28.20;20.02;;;;;;;22.92;91.78;99272.64;1708568;83;21128;-77
2021/08/02 04:11:45;;;;;;;25.30;17.65;;;;;;;23.17;90.79;99265.12;1708950;83;21113;-78
2021/08/02 04:14:12;;;;;;;22.42;16.35;;;;;;;23.45;88.58;99260.39;1711853;82;21069;-77
2021/08/02 04:16:39;;;;;;;21.85;17.80;;;;;;;23.75;85.58;99250.65;1711257;83;21260;-77
2021/08/02 04:19:08;;;;;;;21.80;16.00;;;;;;;23.87;86.39;99252.02;1672803;85;21057;-79
2021/08/02 04:21:36;;;;;;;21.55;16.25;;;;;;;24.06;83.41;99239.64;1669759;84;21088;-77
2021/08/02 04:24:04;;;;;;;23.42;17.80;;;;;;;24.29;83.04;99238.98;1651119;86;21311;-76
2021/08/02 04:26:31;;;;;;;20.23;14.80;;;;;;;24.57;82.27;99237.34;1653266;85;21105;-75
2021/08/02 04:28:58;;;;;;;26.85;15.45;;;;;;;24.85;79.14;99231.95;1710776;83;21068;-76
2021/08/02 04:31:29;;;;;;;24.52;16.87;;;;;;;25.06;79.67;99242.69;1711355;82;21034;-75
2021/08/02 04:33:56;;;;;;;20.33;14.90;;;;;;;25.13;79.12;99224.83;1711254;82;21101;-75
2021/08/02 04:36:25;;;;;;;29.90;17.60;;;;;;;25.22;78.04;99225.68;1709449;82;21112;-75
2021/08/02 04:38:53;;;;;;;26.35;16.62;;;;;;;25.02;79.87;99222.49;1710156;83;20986;-77
2021/08/02 04:41:20;;;;;;;22.30;16.70;;;;;;;24.82;79.48;99216.12;1710798;83;21315;-76
2021/08/02 04:43:48;;;;;;;25.97;18.07;;;;;;;24.60;81.41;99219.02;1709962;83;21086;-76
2021/08/02 04:46:15;;;;;;;23.18;17.37;;;;;;;24.37;82.65;99218.83;1710406;83;22186;-75
2021/08/02 04:48:44;;;;;;;22.10;17.00;;;;;;;24.20;83.54;99217.11;1675680;85;22578;-75
2021/08/02 04:51:10;;;;;;;26.80;17.00;;;;;;;24.06;84.54;99209.20;1700701;83;21092;-77
2021/08/02 04:53:38;;;;;;;27.27;19.20;;;;;;;23.94;83.01;99214.05;1696449;82;21038;-77
2021/08/02 04:56:05;;;;;;;23.98;19.17;;;;;;;23.80;86.04;99210.67;1706957;83;21007;-77
2021/08/02 04:58:32;;;;;;;27.40;18.77;;;;;;;23.75;86.86;99223.77;1664342;85;21689;-74
2021/08/02 05:00:59;;;;;;;25.12;18.98;;;;;;;23.71;86.72;99222.38;1669980;85;21695;-76
2021/08/02 05:03:26;;;;;;;27.62;18.37;;;;;;;23.69;87.60;99232.44;1670092;85;21025;-76
2021/08/02 05:05:54;;;;;;;23.15;19.67;;;;;;;23.64;88.74;99237.80;1656188;85;21121;-76
2021/08/02 05:08:21;;;;;;;23.35;17.85;;;;;;;23.59;88.72;99232.58;1710399;83;21073;-77
2021/08/02 05:10:50;;;;;;;23.67;19.40;;;;;;;23.55;88.92;99217.27;1693616;83;21612;-77
2021/08/02 05:13:17;;;;;;;31.00;19.32;;;;;;;23.58;88.91;99212.06;1711349;83;21082;-76
2021/08/02 05:15:43;;;;;;;23.00;19.27;;;;;;;23.61;88.83;99208.56;1707162;83;21006;-75
2021/08/02 05:18:11;;;;;;;32.25;20.30;;;;;;;23.64;88.77;99212.26;1704669;83;21122;-77
2021/08/02 05:20:39;;;;;;;23.55;19.25;;;;;;;23.63;89.34;99202.53;1702436;82;21054;-76
2021/08/02 05:23:06;;;;;;;28.25;19.52;;;;;;;23.66;88.83;99198.67;1696934;83;21160;-77
2021/08/02 05:25:33;;;;;;;28.17;18.10;;;;;;;23.73;88.84;99189.45;1710450;83;22075;-76
2021/08/02 05:28:00;;;;;;;24.75;16.87;;;;;;;23.80;88.36;99183.78;1692295;83;21066;-73
2021/08/02 05:30:27;;;;;;;26.27;18.77;;;;;;;23.90;88.04;99180.94;1663209;85;21080;-74
2021/08/02 05:32:54;;;;;;;24.20;17.87;;;;;;;23.94;86.88;99177.75;1691369;83;21076;-74
2021/08/02 05:35:21;;;;;;;22.60;17.70;;;;;;;23.99;87.22;99170.02;1692211;83;21094;-74
2021/08/02 05:37:48;;;;;;;24.30;17.17;;;;;;;24.04;84.77;99165.01;1673528;85;21693;-75
2021/08/02 05:40:17;;;;;;;33.35;17.35;;;;;;;24.12;85.74;99152.57;1706300;83;21629;-74
2021/08/02 05:42:43;;;;;;;24.27;17.60;;;;;;;24.22;85.90;99153.23;1710954;83;21156;-72
2021/08/02 05:45:11;;;;;;;24.92;18.32;;;;;;;24.33;83.36;99150.20;1683661;83;21103;-73
2021/08/02 05:47:40;;;;;;;22.35;18.07;;;;;;;24.45;84.47;99139.42;1705822;83;21509;-73
2021/08/02 05:50:09;;;;;;;25.43;18.30;;;;;;;24.52;83.65;99161.66;1688736;82;21977;-73
2021/08/02 05:52:37;;;;;;;25.08;19.07;;;;;;;24.57;82.88;99152.56;1712000;82;21066;-74
2021/08/02 05:55:06;;;;;;;31.37;18.07;;;;;;;24.64;83.07;99146.83;1699436;82;21062;-71
2021/08/02 05:57:32;;;;;;;20.82;16.73;;;;;;;24.66;82.49;99150.19;1692815;83;21686;-75
2021/08/02 06:00:02;;;;;;;24.87;18.80;;;;;;;24.66;82.49;99158.27;1697291;83;21299;-81
2021/08/02 06:02:30;;;;;;;23.67;18.17;;;;;;;24.64;82.29;99148.17;1670434;83;21548;-76
2021/08/02 06:04:57;;;;;;;28.47;19.27;;;;;;;24.70;82.50;99148.84;1686580;83;21081;-75
2021/08/02 06:07:24;;;;;;;32.93;18.55;;;;;;;24.71;82.23;99135.73;1663561;85;21544;-75
2021/08/02 06:09:52;;;;;;;31.37;18.48;;;;;;;24.75;81.21;99135.70;1703282;83;21050;-76
2021/08/02 06:12:19;;;;;;;28.38;18.92;;;;;;;24.80;81.64;99115.85;1706862;83;21084;-76
2021/08/02 06:14:46;;;;;;;25.68;18.23;;;;;;;24.95;81.17;99125.89;1712029;82;21042;-74
2021/08/02 06:17:14;;;;;;;24.65;16.70;;;;;;;25.09;79.97;99110.34;1712032;83;21105;-74
2021/08/02 06:19:43;;;;;;;23.55;16.37;;;;;;;25.27;79.79;99104.23;1695483;83;21062;-74
2021/08/02 06:22:11;;;;;;;21.87;15.80;;;;;;;25.48;78.42;99113.03;1688965;83;21085;-72
2021/08/02 06:24:38;;;;;;;21.65;15.98;;;;;;;25.69;76.91;99116.44;1707833;83;21021;-75
2021/08/02 06:27:08;;;;;;;30.02;16.27;;;;;;;25.81;77.24;99107.42;1712215;83;21046;-75
2021/08/02 06:29:36;;;;;;;23.40;16.48;;;;;;;25.99;76.00;99099.06;1704151;83;21489;-74
2021/08/02 06:32:07;;;;;;;20.48;14.95;;;;;;;26.12;76.12;99104.69;1693808;83;21584;-73
2021/08/02 06:34:34;;;;;;;22.58;14.73;;;;;;;26.27;74.78;99110.14;1686751;83;21121;-75
2021/08/02 06:37:01;;;;;;;20.12;15.00;;;;;;;26.32;73.89;99114.47;1708499;83;21659;-74
2021/08/02 06:39:28;;;;;;;28.07;14.65;;;;;;;26.29;73.84;99116.68;1702302;82;21073;-74
2021/08/02 06:41:55;;;;;;;25.00;15.68;;;;;;;26.27;73.88;99111.48;1707630;83;21482;-75
2021/08/02 06:44:22;;;;;;;24.12;13.78;;;;;;;26.27;73.89;99117.37;1711592;82;21061;-73
2021/08/02 06:46:50;;;;;;;21.05;14.03;;;;;;;26.32;74.18;99119.03;1707317;83;21077;-75
2021/08/02 06:49:17;;;;;;;21.30;12.73;;;;;;;26.41;72.96;99111.19;1712652;83;21080;-74
2021/08/02 06:51:45;;;;;;;18.30;13.28;;;;;;;26.47;72.18;99110.95;1712733;83;21770;-74
2021/08/02 06:54:13;;;;;;;19.95;12.47;;;;;;;26.54;72.21;99111.40;1712008;82;21046;-74
2021/08/02 06:56:41;;;;;;;18.30;12.60;;;;;;;26.57;70.91;99102.95;1709879;82;21621;-74
2021/08/02 06:59:08;;;;;;;17.50;11.83;;;;;;;26.63;71.36;99108.11;1711316;83;21052;-74
2021/08/02 07:01:36;;;;;;;16.37;11.80;;;;;;;26.72;70.00;99111.56;1673020;85;21113;-74
2021/08/02 07:04:03;;;;;;;15.32;10.98;;;;;;;26.87;68.88;99099.39;1674584;85;21594;-74
2021/08/02 07:06:30;;;;;;;16.02;12.50;;;;;;;27.31;67.92;99104.80;1657195;84;21065;-74
2021/08/02 07:09:00;;;;;;;18.30;12.13;;;;;;;27.80;66.28;99095.95;1657721;86;21158;-77
2021/08/02 07:11:29;;;;;;;17.57;11.88;;;;;;;28.13;64.03;99090.02;1653519;86;21616;-74
2021/08/02 07:13:56;;;;;;;13.55;11.53;;;;;;;28.45;63.04;99086.41;1660878;86;21046;-74
2021/08/02 07:16:23;;;;;;;14.33;10.70;;;;;;;28.68;62.40;99086.70;1654079;85;22184;-74
2021/08/02 07:18:54;;;;;;;22.77;11.80;;;;;;;28.73;61.15;99082.88;1673466;85;21089;-75
2021/08/02 07:21:21;;;;;;;16.27;11.18;;;;;;;28.85;61.06;99093.48;1673325;85;21575;-72
2021/08/02 07:23:49;;;;;;;15.08;10.18;;;;;;;29.04;60.08;99087.31;1675258;85;21736;-74
2021/08/02 07:26:16;;;;;;;16.37;10.28;;;;;;;29.15;59.74;99095.42;1671001;85;21061;-72
2021/08/02 07:28:45;;;;;;;21.10;10.75;;;;;;;29.28;58.77;99090.55;1667981;84;21133;-76
2021/08/02 07:31:14;;;;;;;18.00;10.38;;;;;;;29.29;57.68;99100.38;1640984;85;21726;-74
2021/08/02 07:33:41;;;;;;;14.18;11.10;;;;;;;29.09;56.72;99094.04;1668811;85;21557;-74
2021/08/02 07:36:08;;;;;;;20.43;10.82;;;;;;;28.99;57.82;99099.28;1670981;85;21109;-76
2021/08/02 07:38:36;;;;;;;27.77;10.68;;;;;;;29.06;57.95;99102.86;1671766;85;21030;-74
2021/08/02 07:41:03;;;;;;;18.30;10.95;;;;;;;28.95;56.94;99103.95;1674433;85;21134;-74
2021/08/02 07:43:30;;;;;;;16.55;10.10;;;;;;;28.87;57.48;99103.58;1676890;85;21062;-76
2021/08/02 07:45:57;;;;;;;19.52;10.58;;;;;;;28.76;56.78;99111.77;1674885;84;21093;-77
2021/08/02 07:48:24;;;;;;;17.75;10.72;;;;;;;28.66;56.15;99113.98;1610010;84;22836;-75
2021/08/02 07:50:51;;;;;;;24.37;10.63;;;;;;;28.79;56.02;99110.53;1615684;87;21700;-74
2021/08/02 07:53:18;;;;;;;18.70;11.15;;;;;;;29.05;54.93;99109.30;1612563;88;21130;-74
2021/08/02 07:55:45;;;;;;;21.97;11.48;;;;;;;29.39;54.80;99104.89;1611308;88;22068;-74
2021/08/02 07:58:13;;;;;;;20.12;10.78;;;;;;;29.81;54.02;99111.59;1624978;88;21030;-74
2021/08/02 08:00:40;;;;;;;15.72;9.55;;;;;;;30.12;52.45;99120.52;1603264;88;21084;-75
2021/08/02 08:03:12;;;;;;;21.80;10.90;;;;;;;30.22;51.28;99107.88;1600151;89;21111;-74
2021/08/02 08:05:40;;;;;;;21.35;10.28;;;;;;;30.20;51.50;99118.93;1601261;89;21149;-74
2021/08/02 08:08:09;;;;;;;13.93;9.10;;;;;;;30.08;51.12;99121.97;1623825;88;21089;-75
2021/08/02 08:10:37;;;;;;;15.80;9.05;;;;;;;30.19;49.90;99107.77;1609636;88;21082;-75
2021/08/02 08:13:06;;;;;;;16.80;9.30;;;;;;;30.42;48.98;99106.55;1624476;88;21125;-75
2021/08/02 08:15:33;;;;;;;21.45;9.30;;;;;;;30.76;49.26;99110.02;1624934;87;21057;-74
2021/08/02 08:18:00;;;;;;;15.60;8.18;;;;;;;31.13;47.62;99105.25;1626265;88;21158;-74
2021/08/02 08:20:27;;;;;;;16.17;8.33;;;;;;;31.33;46.56;99105.67;1624384;88;21101;-75
2021/08/02 08:22:54;;;;;;;14.20;9.10;;;;;;;31.85;45.33;99110.54;1623943;88;21050;-74
2021/08/02 08:25:21;;;;;;;18.73;9.23;;;;;;;31.85;45.33;99110.54;1611685;88;21114;-74
2021/08/02 08:27:56;;;;;;;18.35;8.75;;;;;;;32.26;44.84;99105.66;1625857;88;21623;-74
2021/08/02 08:30:23;;;;;;;16.82;7.45;;;;;;;32.43;43.13;99111.38;1627106;88;21169;-73
2021/08/02 08:32:51;;;;;;;14.90;8.68;;;;;;;32.56;41.80;99118.09;1624961;88;21114;-74
2021/08/02 08:35:18;;;;;;;16.67;7.55;;;;;;;32.49;42.44;99107.77;1627285;86;21096;-75
2021/08/02 08:37:44;;;;;;;13.80;7.78;;;;;;;32.59;41.19;99126.64;1626588;87;21093;-74
2021/08/02 08:40:12;;;;;;;26.40;8.53;;;;;;;32.62;41.18;99122.63;1613234;88;21651;-75
2021/08/02 08:42:41;;;;;;;13.80;7.70;;;;;;;32.51;41.39;99109.23;1577920;89;21685;-74
2021/08/02 08:45:09;;;;;;;20.65;8.40;;;;;;;32.55;40.46;99116.41;1611033;88;21112;-77
2021/08/02 08:47:36;;;;;;;16.70;7.83;;;;;;;32.78;41.16;99108.95;1612931;88;21021;-75
2021/08/02 08:50:05;;;;;;;13.98;7.60;;;;;;;32.85;39.67;99109.70;1610868;88;21569;-75
2021/08/02 08:52:45;;;;;;;12.88;7.00;;;;;;;32.91;39.27;99113.44;1608599;88;21081;-76
2021/08/02 08:55:15;;;;;;;20.92;5.80;;;;;;;33.30;38.10;99112.69;1615180;88;21176;-76
2021/08/02 08:57:42;;;;;;;14.23;5.72;;;;;;;33.55;35.16;99105.74;1617407;88;21140;-76
2021/08/02 09:00:24;;;;;;;14.03;6.80;;;;;;;33.44;36.23;99105.44;1610292;88;21076;-75
2021/08/02 09:02:52;;;;;;;14.43;5.78;;;;;;;33.61;36.38;99104.83;1598300;89;21469;-74
2021/08/02 09:05:19;;;;;;;13.78;5.45;;;;;;;33.40;35.98;99103.41;1625819;86;21092;-76
2021/08/02 09:07:46;;;;;;;12.37;5.50;;;;;;;33.19;36.69;99111.02;1652808;86;22571;-75
2021/08/02 09:10:17;;;;;;;16.05;6.20;;;;;;;33.11;35.76;99107.79;1649638;86;21707;-75
2021/08/02 09:12:52;;;;;;;14.05;5.70;;;;;;;32.90;36.37;99109.02;1640605;86;21671;-75
2021/08/02 09:15:44;;;;;;;21.93;6.58;;;;;;;32.84;36.50;99108.59;1650839;85;21165;-74
2021/08/02 09:18:21;;;;;;;12.65;5.30;;;;;;;32.78;36.42;99104.35;1647514;86;21086;-74
2021/08/02 09:21:02;;;;;;;12.18;5.20;;;;;;;32.89;35.81;99112.82;1650239;86;22038;-74
2021/08/02 09:23:29;;;;;;;14.07;5.42;;;;;;;33.38;35.98;99097.34;1627121;86;21663;-74
2021/08/02 09:25:59;;;;;;;13.45;5.08;;;;;;;33.87;34.50;99109.08;1651153;86;21088;-74
2021/08/02 09:28:27;;;;;;;13.00;6.15;;;;;;;34.06;33.77;99105.19;1650293;86;21069;-75
2021/08/02 09:31:04;;;;;;;21.70;6.15;;;;;;;33.84;33.81;99099.46;1650356;86;21110;-73
2021/08/02 09:33:47;;;;;;;14.85;5.30;;;;;;;33.80;33.91;99100.98;1651692;86;21529;-75
2021/08/02 09:36:15;;;;;;;15.30;5.47;;;;;;;33.87;33.57;99100.89;1647613;86;21058;-75
2021/08/02 09:38:42;;;;;;;10.38;4.85;;;;;;;33.76;34.50;99101.69;1640623;85;22220;-76
2021/08/02 09:41:20;;;;;;;13.78;5.78;;;;;;;33.95;33.89;99110.09;1650981;86;21076;-73
2021/08/02 09:43:54;;;;;;;30.20;6.83;;;;;;;33.89;34.24;99108.31;1643650;85;21053;-75
2021/08/02 09:46:20;;;;;;;9.93;5.20;;;;;;;33.79;34.73;99113.49;1648463;85;21114;-75
2021/08/02 09:48:47;;;;;;;11.97;5.50;;;;;;;34.12;33.95;99109.44;1585472;89;21120;-76
2021/08/02 09:51:21;;;;;;;12.10;5.70;;;;;;;34.39;33.48;99106.55;1638115;86;21100;-76
2021/08/02 09:53:54;;;;;;;12.20;5.40;;;;;;;33.96;34.25;99113.14;1590815;89;21575;-75
2021/08/02 09:56:23;;;;;;;15.38;5.55;;;;;;;33.68;34.85;99105.56;1609072;88;21076;-75
2021/08/02 09:58:52;;;;;;;15.50;6.30;;;;;;;33.46;35.84;99105.23;1608268;88;22023;-77
2021/08/02 10:01:20;;;;;;;17.17;6.65;;;;;;;33.28;36.05;99117.00;1587753;89;21459;-75
2021/08/02 10:03:48;;;;;;;13.87;5.87;;;;;;;33.02;36.73;99115.41;1651440;86;21085;-76
2021/08/02 10:06:15;;;;;;;15.28;5.80;;;;;;;32.86;37.04;99125.02;1595240;89;21101;-74
2021/08/02 10:08:45;;;;;;;10.58;5.90;;;;;;;32.83;36.54;99116.45;1639055;86;21152;-77
2021/08/02 10:11:12;;;;;;;14.78;5.67;;;;;;;33.09;37.65;99120.28;1649294;86;21538;-79
2021/08/02 10:13:43;;;;;;;11.20;5.47;;;;;;;33.39;35.63;99119.49;1650732;86;21034;-78
2021/08/02 10:16:15;;;;;;;7.50;4.92;;;;;;;33.57;35.53;99123.58;1624542;86;22060;-76
2021/08/02 10:18:49;;;;;;;12.58;5.37;;;;;;;33.71;35.71;99122.03;1622527;86;21081;-76
2021/08/02 10:21:19;;;;;;;15.55;5.60;;;;;;;33.63;35.13;99119.91;1596526;89;21536;-76
2021/08/02 10:23:49;;;;;;;11.85;5.62;;;;;;;33.52;36.79;99119.32;1588600;89;21379;-77
2021/08/02 10:26:28;;;;;;;12.00;6.30;;;;;;;33.57;36.25;99126.31;1594987;89;21112;-76
2021/08/02 10:28:59;;;;;;;16.75;5.67;;;;;;;33.31;36.11;99129.34;1651852;86;21406;-75
2021/08/02 10:31:27;;;;;;;15.93;5.40;;;;;;;32.97;37.00;99136.54;1647837;86;21442;-74
2021/08/02 10:33:55;;;;;;;11.70;6.22;;;;;;;32.90;37.31;99132.20;1628572;86;21663;-74
2021/08/02 10:36:23;;;;;;;13.15;5.60;;;;;;;32.93;37.22;99130.41;1645315;86;21129;-75
2021/08/02 10:38:53;;;;;;;10.18;5.45;;;;;;;32.93;37.24;99139.41;1652134;86;21569;-76
2021/08/02 10:41:30;;;;;;;13.40;5.53;;;;;;;32.91;37.68;99144.79;1652498;86;21715;-75
2021/08/02 10:44:14;;;;;;;10.93;5.62;;;;;;;32.90;37.84;99139.02;1653570;86;21022;-75
2021/08/02 10:46:42;;;;;;;14.70;5.45;;;;;;;32.88;37.97;99135.70;1653108;86;21168;-74
2021/08/02 10:49:11;;;;;;;12.68;4.83;;;;;;;32.96;37.87;99137.58;1652267;86;21152;-75
2021/08/02 10:51:47;;;;;;;16.73;5.70;;;;;;;33.15;38.01;99134.38;1650851;86;21094;-72
2021/08/02 10:54:14;;;;;;;21.20;12.82;;;;;;;33.30;38.09;99131.25;1649136;85;21149;-75
2021/08/02 10:56:41;;;;;;;11.65;6.45;;;;;;;33.49;36.40;99129.86;1647189;86;21654;-73
2021/08/02 10:59:08;;;;;;;13.62;6.58;;;;;;;33.63;36.62;99137.65;1613962;88;21101;-73
2021/08/02 11:01:37;;;;;;;17.23;6.08;;;;;;;33.62;35.95;99135.99;1613212;88;21154;-73
2021/08/02 11:04:11;;;;;;;8.98;4.75;;;;;;;33.61;35.64;99138.44;1613380;88;21136;-73
2021/08/02 11:06:38;;;;;;;18.07;10.32;;;;;;;33.74;35.60;99136.58;1615449;88;20970;-73
2021/08/02 11:09:05;;;;;;;14.87;5.65;;;;;;;33.39;35.82;99148.14;1592290;88;21294;-74
2021/08/02 11:11:34;;;;;;;13.55;6.67;;;;;;;33.03;36.93;99139.70;1613546;88;21630;-74
2021/08/02 11:14:20;;;;;;;20.08;14.75;;;;;;;32.97;35.05;99154.27;1617783;88;21256;-76
2021/08/02 11:16:50;;;;;;;12.43;4.37;;;;;;;33.01;34.00;99151.39;1599643;89;21107;-73
2021/08/02 11:19:21;;;;;;;19.90;7.90;;;;;;;33.26;34.98;99159.22;1613969;88;21138;-74
2021/08/02 11:22:03;;;;;;;13.62;5.58;;;;;;;33.41;33.46;99156.40;1615629;88;21082;-72
2021/08/02 11:24:33;;;;;;;7.85;4.05;;;;;;;33.55;33.74;99157.59;1598278;89;21334;-72
2021/08/02 11:27:05;;;;;;;10.88;7.03;;;;;;;33.55;33.72;99163.88;1602046;89;21129;-73
2021/08/02 11:29:33;;;;;;;12.78;5.78;;;;;;;33.32;33.46;99161.04;1625196;88;21545;-72
2021/08/02 11:32:09;;;;;;;12.80;4.75;;;;;;;33.36;34.25;99159.50;1594409;88;21152;-75